Orbital elements of ARIANE 3 DEB
| Launched | 7 September 1988 |
| Flight ended | – |
| Launch site | Europe's Spaceport, Kourou, French Guiana |
| Owner | France |
| NORAD ID | 33538 |
| Date fetched |
Epoch osculation |
Inc. [°] |
Ecc. | RA asc node [hr] |
Arg Peri. [°] |
Mean anom [°] |
Mean motion [rev/day] |
Abs. mag |
| Date fetched |
Epoch osculation |
Inc. [°] |
Ecc. | RA asc node [hr] |
Arg Peri. [°] |
Mean anom [°] |
Mean motion [rev/day] |
Abs. mag |
| 2026 May 01 17:56 | 2026 Apr 24 19:29:24 | 7.7298 | 0.71935 | 0.9169 | 269.4878 | 15.4665 | 2.24395 | – |
| 2026 Apr 30 17:56 | 2026 Apr 24 19:29:24 | 7.7298 | 0.71935 | 0.9169 | 269.4878 | 15.4665 | 2.24395 | – |
| 2026 Apr 29 17:57 | 2026 Apr 20 19:15:32 | 7.7289 | 0.71934 | 1.0074 | 266.6729 | 15.4665 | 2.24395 | – |
| 2026 Apr 28 17:56 | 2026 Apr 20 19:15:32 | 7.7289 | 0.71934 | 1.0074 | 266.6729 | 15.4665 | 2.24395 | – |
| 2026 Apr 27 17:58 | 2026 Apr 20 19:15:32 | 7.7289 | 0.71934 | 1.0074 | 266.6729 | 15.4665 | 2.24395 | – |
| 2026 Apr 26 17:58 | 2026 Apr 20 19:15:32 | 7.7289 | 0.71934 | 1.0074 | 266.6729 | 15.4665 | 2.24395 | – |
| 2026 Apr 25 17:58 | 2026 Apr 20 19:15:32 | 7.7289 | 0.71934 | 1.0074 | 266.6729 | 15.4665 | 2.24395 | – |
| 2026 Apr 24 17:59 | 2026 Apr 20 19:15:32 | 7.7289 | 0.71934 | 1.0074 | 266.6729 | 15.4665 | 2.24395 | – |
| 2026 Apr 23 17:57 | 2026 Apr 15 21:39:02 | 7.7271 | 0.71933 | 1.1181 | 263.2342 | 15.4665 | 2.24395 | – |
| 2026 Apr 22 17:57 | 2026 Apr 15 21:39:02 | 7.7271 | 0.71933 | 1.1181 | 263.2342 | 15.4665 | 2.24395 | – |
| 2026 Apr 21 17:57 | 2026 Apr 15 21:39:02 | 7.7271 | 0.71933 | 1.1181 | 263.2342 | 15.4665 | 2.24395 | – |
| 2026 Apr 20 17:57 | 2026 Apr 15 21:39:02 | 7.7271 | 0.71933 | 1.1181 | 263.2342 | 15.4665 | 2.24395 | – |
| 2026 Apr 19 17:58 | 2026 Apr 15 21:39:02 | 7.7271 | 0.71933 | 1.1181 | 263.2342 | 15.4665 | 2.24395 | – |
| 2026 Apr 18 17:56 | 2026 Apr 11 21:25:42 | 7.7249 | 0.71931 | 1.2097 | 260.4077 | 15.4665 | 2.24395 | – |
| 2026 Apr 16 17:57 | 2026 Apr 11 21:25:42 | 7.7249 | 0.71931 | 1.2097 | 260.4077 | 15.4665 | 2.24395 | – |
| 2026 Apr 14 17:57 | 2026 Apr 11 21:25:42 | 7.7249 | 0.71931 | 1.2097 | 260.4077 | 15.4665 | 2.24395 | – |
| 2026 Apr 13 17:57 | 2026 Apr 11 21:25:42 | 7.7249 | 0.71931 | 1.2097 | 260.4077 | 15.4665 | 2.24395 | – |
| 2026 Apr 12 17:57 | 2026 Apr 05 05:03:44 | 7.7200 | 0.71930 | 1.3641 | 255.6684 | 15.4665 | 2.24395 | – |
| 2026 Apr 11 17:57 | 2026 Apr 05 05:03:44 | 7.7200 | 0.71930 | 1.3641 | 255.6684 | 15.4665 | 2.24395 | – |
| 2026 Apr 10 17:58 | 2026 Apr 05 05:03:44 | 7.7200 | 0.71930 | 1.3641 | 255.6684 | 15.4665 | 2.24395 | – |
| 2026 Apr 09 18:01 | 2026 Apr 05 05:03:44 | 7.7200 | 0.71930 | 1.3641 | 255.6684 | 15.4665 | 2.24395 | – |
| 2026 Apr 08 17:57 | 2026 Apr 05 05:03:44 | 7.7200 | 0.71930 | 1.3641 | 255.6684 | 15.4665 | 2.24395 | – |
| 2026 Apr 07 17:57 | 2026 Mar 26 20:34:18 | 7.7088 | 0.71933 | 1.5789 | 249.0614 | 15.4665 | 2.24395 | – |
| 2026 Apr 06 17:57 | 2026 Mar 26 20:34:18 | 7.7088 | 0.71933 | 1.5789 | 249.0614 | 15.4665 | 2.24395 | – |
| 2026 Apr 05 17:56 | 2026 Mar 26 20:34:18 | 7.7088 | 0.71933 | 1.5789 | 249.0614 | 15.4665 | 2.24395 | – |
| 2026 Apr 04 17:57 | 2026 Mar 26 20:34:18 | 7.7088 | 0.71933 | 1.5789 | 249.0614 | 15.4665 | 2.24395 | – |